sensor_id;sensor_type;location;lat;lon;timestamp;temperature;humidity
54082;DHT22;39986;50.770;0.266;2024-03-07T00:00:10;8.50;99.90
54082;DHT22;39986;50.770;0.266;2024-03-07T00:02:48;8.40;99.90
54082;DHT22;39986;50.770;0.266;2024-03-07T00:05:21;8.40;99.90
54082;DHT22;39986;50.770;0.266;2024-03-07T00:07:50;8.30;99.90
54082;DHT22;39986;50.770;0.266;2024-03-07T00:10:19;8.30;99.90
54082;DHT22;39986;50.770;0.266;2024-03-07T00:12:46;8.30;99.90
54082;DHT22;39986;50.770;0.266;2024-03-07T00:17:39;8.20;99.90
54082;DHT22;39986;50.770;0.266;2024-03-07T00:20:08;8.10;99.90
54082;DHT22;39986;50.770;0.266;2024-03-07T00:22:35;8.20;99.90
54082;DHT22;39986;50.770;0.266;2024-03-07T00:25:01;8.20;99.90
54082;DHT22;39986;50.770;0.266;2024-03-07T00:27:30;8.20;99.90
54082;DHT22;39986;50.770;0.266;2024-03-07T00:29:56;8.20;99.90
54082;DHT22;39986;50.770;0.266;2024-03-07T00:32:22;8.40;99.90
54082;DHT22;39986;50.770;0.266;2024-03-07T00:34:49;8.40;99.90
54082;DHT22;39986;50.770;0.266;2024-03-07T00:37:15;8.30;99.90
54082;DHT22;39986;50.770;0.266;2024-03-07T00:39:41;8.30;99.90
54082;DHT22;39986;50.770;0.266;2024-03-07T00:42:07;8.40;99.90
54082;DHT22;39986;50.770;0.266;2024-03-07T00:47:02;8.40;99.90
54082;DHT22;39986;50.770;0.266;2024-03-07T00:49:28;8.50;99.90
54082;DHT22;39986;50.770;0.266;2024-03-07T00:51:58;8.50;99.90
54082;DHT22;39986;50.770;0.266;2024-03-07T00:54:23;8.60;99.90
54082;DHT22;39986;50.770;0.266;2024-03-07T00:56:49;8.40;99.90
54082;DHT22;39986;50.770;0.266;2024-03-07T00:59:15;8.30;99.90
54082;DHT22;39986;50.770;0.266;2024-03-07T01:01:41;8.30;99.90
54082;DHT22;39986;50.770;0.266;2024-03-07T01:04:07;8.30;99.90
54082;DHT22;39986;50.770;0.266;2024-03-07T01:08:59;8.40;99.90
54082;DHT22;39986;50.770;0.266;2024-03-07T01:11:24;8.30;99.90
54082;DHT22;39986;50.770;0.266;2024-03-07T01:16:16;8.30;99.90
54082;DHT22;39986;50.770;0.266;2024-03-07T01:18:41;8.30;99.90
54082;DHT22;39986;50.770;0.266;2024-03-07T01:21:07;8.20;99.90
54082;DHT22;39986;50.770;0.266;2024-03-07T01:26:01;8.30;99.90
54082;DHT22;39986;50.770;0.266;2024-03-07T01:28:27;8.30;99.90
54082;DHT22;39986;50.770;0.266;2024-03-07T01:30:56;8.10;99.90
54082;DHT22;39986;50.770;0.266;2024-03-07T01:33:21;8.20;99.90
54082;DHT22;39986;50.770;0.266;2024-03-07T01:35:47;8.10;99.90
54082;DHT22;39986;50.770;0.266;2024-03-07T01:38:13;8.20;99.90
54082;DHT22;39986;50.770;0.266;2024-03-07T01:40:40;8.30;99.90
54082;DHT22;39986;50.770;0.266;2024-03-07T01:43:06;8.20;99.90
54082;DHT22;39986;50.770;0.266;2024-03-07T01:45:32;8.40;99.90
54082;DHT22;39986;50.770;0.266;2024-03-07T01:47:58;8.30;99.90
54082;DHT22;39986;50.770;0.266;2024-03-07T01:50:23;8.30;99.90
54082;DHT22;39986;50.770;0.266;2024-03-07T01:55:17;8.10;99.90
54082;DHT22;39986;50.770;0.266;2024-03-07T02:00:11;8.30;99.90
54082;DHT22;39986;50.770;0.266;2024-03-07T02:02:38;8.00;99.90
54082;DHT22;39986;50.770;0.266;2024-03-07T02:05:07;8.10;99.90
54082;DHT22;39986;50.770;0.266;2024-03-07T02:07:32;8.10;99.90
54082;DHT22;39986;50.770;0.266;2024-03-07T02:10:01;8.10;99.90
54082;DHT22;39986;50.770;0.266;2024-03-07T02:12:30;8.10;99.90
54082;DHT22;39986;50.770;0.266;2024-03-07T02:14:58;8.00;99.90
54082;DHT22;39986;50.770;0.266;2024-03-07T02:17:24;7.90;99.90
54082;DHT22;39986;50.770;0.266;2024-03-07T02:19:50;7.90;99.90
54082;DHT22;39986;50.770;0.266;2024-03-07T02:22:17;7.90;99.90
54082;DHT22;39986;50.770;0.266;2024-03-07T02:24:42;7.80;99.90
54082;DHT22;39986;50.770;0.266;2024-03-07T02:27:13;7.70;99.90
54082;DHT22;39986;50.770;0.266;2024-03-07T02:29:42;7.90;99.90
54082;DHT22;39986;50.770;0.266;2024-03-07T02:32:08;7.90;99.90
54082;DHT22;39986;50.770;0.266;2024-03-07T02:37:01;7.80;99.90
54082;DHT22;39986;50.770;0.266;2024-03-07T02:39:26;7.70;99.90
54082;DHT22;39986;50.770;0.266;2024-03-07T02:41:52;7.80;99.90
54082;DHT22;39986;50.770;0.266;2024-03-07T02:44:20;7.80;99.90
54082;DHT22;39986;50.770;0.266;2024-03-07T02:46:46;7.90;99.90
54082;DHT22;39986;50.770;0.266;2024-03-07T02:49:12;7.70;99.90
54082;DHT22;39986;50.770;0.266;2024-03-07T02:51:38;7.80;99.90
54082;DHT22;39986;50.770;0.266;2024-03-07T02:54:04;7.90;99.90
54082;DHT22;39986;50.770;0.266;2024-03-07T02:58:56;7.80;99.90
54082;DHT22;39986;50.770;0.266;2024-03-07T03:01:22;7.80;99.90
54082;DHT22;39986;50.770;0.266;2024-03-07T03:06:13;7.80;99.90
54082;DHT22;39986;50.770;0.266;2024-03-07T03:16:00;7.70;99.90
54082;DHT22;39986;50.770;0.266;2024-03-07T03:20:54;7.90;99.90
54082;DHT22;39986;50.770;0.266;2024-03-07T03:23:20;7.70;99.90
54082;DHT22;39986;50.770;0.266;2024-03-07T03:28:15;7.90;99.90
54082;DHT22;39986;50.770;0.266;2024-03-07T03:33:06;7.90;99.90
54082;DHT22;39986;50.770;0.266;2024-03-07T03:35:33;7.80;99.90
54082;DHT22;39986;50.770;0.266;2024-03-07T03:37:58;7.60;99.90
54082;DHT22;39986;50.770;0.266;2024-03-07T03:42:50;7.70;99.90
54082;DHT22;39986;50.770;0.266;2024-03-07T03:45:16;7.70;99.90
54082;DHT22;39986;50.770;0.266;2024-03-07T03:57:29;7.70;99.90
54082;DHT22;39986;50.770;0.266;2024-03-07T03:59:56;7.60;99.90
54082;DHT22;39986;50.770;0.266;2024-03-07T04:02:22;7.60;99.90
54082;DHT22;39986;50.770;0.266;2024-03-07T04:04:50;7.50;99.90
54082;DHT22;39986;50.770;0.266;2024-03-07T04:07:17;7.50;99.90
54082;DHT22;39986;50.770;0.266;2024-03-07T04:09:43;7.50;99.90
54082;DHT22;39986;50.770;0.266;2024-03-07T04:14:43;7.40;99.90
54082;DHT22;39986;50.770;0.266;2024-03-07T04:17:09;7.40;99.90
54082;DHT22;39986;50.770;0.266;2024-03-07T04:19:40;7.40;99.90
54082;DHT22;39986;50.770;0.266;2024-03-07T04:22:05;7.40;99.90
54082;DHT22;39986;50.770;0.266;2024-03-07T04:27:00;7.40;99.90
54082;DHT22;39986;50.770;0.266;2024-03-07T04:29:26;7.40;99.90
54082;DHT22;39986;50.770;0.266;2024-03-07T04:31:52;7.10;99.90
54082;DHT22;39986;50.770;0.266;2024-03-07T04:34:18;7.10;99.90
54082;DHT22;39986;50.770;0.266;2024-03-07T04:36:44;7.10;99.90
54082;DHT22;39986;50.770;0.266;2024-03-07T04:39:09;7.30;99.90
54082;DHT22;39986;50.770;0.266;2024-03-07T04:41:50;7.20;99.90
54082;DHT22;39986;50.770;0.266;2024-03-07T04:44:20;7.10;99.90
54082;DHT22;39986;50.770;0.266;2024-03-07T04:46:48;7.20;99.90
54082;DHT22;39986;50.770;0.266;2024-03-07T04:49:15;7.30;99.90
54082;DHT22;39986;50.770;0.266;2024-03-07T04:51:40;7.20;99.90
54082;DHT22;39986;50.770;0.266;2024-03-07T04:54:09;7.10;99.90
54082;DHT22;39986;50.770;0.266;2024-03-07T04:56:35;7.00;99.90
54082;DHT22;39986;50.770;0.266;2024-03-07T04:59:00;7.00;99.90
54082;DHT22;39986;50.770;0.266;2024-03-07T05:01:26;7.00;99.90
54082;DHT22;39986;50.770;0.266;2024-03-07T05:03:52;6.90;99.90
54082;DHT22;39986;50.770;0.266;2024-03-07T05:06:18;6.90;99.90
54082;DHT22;39986;50.770;0.266;2024-03-07T05:08:44;6.90;99.90
54082;DHT22;39986;50.770;0.266;2024-03-07T05:11:10;6.90;99.90
54082;DHT22;39986;50.770;0.266;2024-03-07T05:13:36;6.90;99.90
54082;DHT22;39986;50.770;0.266;2024-03-07T05:16:02;6.70;99.90
54082;DHT22;39986;50.770;0.266;2024-03-07T05:18:28;6.70;99.90
54082;DHT22;39986;50.770;0.266;2024-03-07T05:20:54;6.50;99.90
54082;DHT22;39986;50.770;0.266;2024-03-07T05:23:22;6.50;99.90
54082;DHT22;39986;50.770;0.266;2024-03-07T05:25:48;6.30;99.90
54082;DHT22;39986;50.770;0.266;2024-03-07T05:28:15;6.30;99.90
54082;DHT22;39986;50.770;0.266;2024-03-07T05:30:41;6.30;99.90
54082;DHT22;39986;50.770;0.266;2024-03-07T05:33:06;6.20;99.90
54082;DHT22;39986;50.770;0.266;2024-03-07T05:35:34;6.50;99.90
54082;DHT22;39986;50.770;0.266;2024-03-07T05:38:00;6.20;99.90
54082;DHT22;39986;50.770;0.266;2024-03-07T05:40:30;6.30;99.90
54082;DHT22;39986;50.770;0.266;2024-03-07T05:42:58;6.50;99.90
54082;DHT22;39986;50.770;0.266;2024-03-07T05:47:51;6.80;99.90
54082;DHT22;39986;50.770;0.266;2024-03-07T05:50:16;6.90;99.90
54082;DHT22;39986;50.770;0.266;2024-03-07T05:52:43;6.90;99.90
54082;DHT22;39986;50.770;0.266;2024-03-07T05:55:09;6.90;99.90
54082;DHT22;39986;50.770;0.266;2024-03-07T05:57:36;6.90;99.90
54082;DHT22;39986;50.770;0.266;2024-03-07T06:02:35;7.20;99.90
54082;DHT22;39986;50.770;0.266;2024-03-07T06:07:29;7.20;99.90
54082;DHT22;39986;50.770;0.266;2024-03-07T06:09:54;7.20;99.90
54082;DHT22;39986;50.770;0.266;2024-03-07T06:12:20;7.30;99.90
54082;DHT22;39986;50.770;0.266;2024-03-07T06:17:11;7.40;99.90
54082;DHT22;39986;50.770;0.266;2024-03-07T06:24:34;7.30;99.90
54082;DHT22;39986;50.770;0.266;2024-03-07T06:26:59;7.00;99.90
54082;DHT22;39986;50.770;0.266;2024-03-07T06:29:25;6.80;99.90
54082;DHT22;39986;50.770;0.266;2024-03-07T06:31:52;6.60;99.90
54082;DHT22;39986;50.770;0.266;2024-03-07T06:34:19;6.40;99.90
54082;DHT22;39986;50.770;0.266;2024-03-07T06:36:45;6.40;99.90
54082;DHT22;39986;50.770;0.266;2024-03-07T06:39:10;6.40;99.90
54082;DHT22;39986;50.770;0.266;2024-03-07T06:41:36;6.20;99.90
54082;DHT22;39986;50.770;0.266;2024-03-07T06:44:02;6.20;99.90
54082;DHT22;39986;50.770;0.266;2024-03-07T06:46:28;6.20;99.90
54082;DHT22;39986;50.770;0.266;2024-03-07T06:48:54;6.10;99.90
54082;DHT22;39986;50.770;0.266;2024-03-07T06:51:21;6.00;99.90
54082;DHT22;39986;50.770;0.266;2024-03-07T06:53:48;9.30;99.90
54082;DHT22;39986;50.770;0.266;2024-03-07T06:58:40;6.00;99.90
54082;DHT22;39986;50.770;0.266;2024-03-07T07:01:05;5.90;99.90
54082;DHT22;39986;50.770;0.266;2024-03-07T07:03:35;5.90;99.90
54082;DHT22;39986;50.770;0.266;2024-03-07T07:06:01;5.80;99.90
54082;DHT22;39986;50.770;0.266;2024-03-07T07:08:26;6.00;99.90
54082;DHT22;39986;50.770;0.266;2024-03-07T07:10:55;6.00;99.90
54082;DHT22;39986;50.770;0.266;2024-03-07T07:15:48;5.80;99.90
54082;DHT22;39986;50.770;0.266;2024-03-07T07:18:14;5.90;99.90
54082;DHT22;39986;50.770;0.266;2024-03-07T07:20:40;6.00;99.90
54082;DHT22;39986;50.770;0.266;2024-03-07T07:23:06;6.10;99.90
54082;DHT22;39986;50.770;0.266;2024-03-07T07:25:32;6.10;99.90
54082;DHT22;39986;50.770;0.266;2024-03-07T07:27:57;6.20;99.90
54082;DHT22;39986;50.770;0.266;2024-03-07T07:30:23;6.30;99.90
54082;DHT22;39986;50.770;0.266;2024-03-07T07:32:52;6.40;99.90
54082;DHT22;39986;50.770;0.266;2024-03-07T07:35:19;6.60;99.90
54082;DHT22;39986;50.770;0.266;2024-03-07T07:37:45;6.60;99.90
54082;DHT22;39986;50.770;0.266;2024-03-07T07:42:40;6.40;99.90
54082;DHT22;39986;50.770;0.266;2024-03-07T07:47:39;6.50;99.90
54082;DHT22;39986;50.770;0.266;2024-03-07T07:50:07;6.50;99.90
54082;DHT22;39986;50.770;0.266;2024-03-07T07:52:43;6.50;99.90
54082;DHT22;39986;50.770;0.266;2024-03-07T07:55:11;6.40;99.90
54082;DHT22;39986;50.770;0.266;2024-03-07T07:57:43;6.50;99.90
54082;DHT22;39986;50.770;0.266;2024-03-07T08:00:13;6.40;99.90
54082;DHT22;39986;50.770;0.266;2024-03-07T08:05:13;6.60;99.90
54082;DHT22;39986;50.770;0.266;2024-03-07T08:07:43;6.80;99.90
54082;DHT22;39986;50.770;0.266;2024-03-07T08:27:23;7.70;99.90
54082;DHT22;39986;50.770;0.266;2024-03-07T08:29:53;7.80;99.90
54082;DHT22;39986;50.770;0.266;2024-03-07T08:46:57;9.40;99.90
54082;DHT22;39986;50.770;0.266;2024-03-07T08:49:25;9.40;99.90
54082;DHT22;39986;50.770;0.266;2024-03-07T08:51:55;9.50;99.90
54082;DHT22;39986;50.770;0.266;2024-03-07T08:54:21;7.90;99.90
54082;DHT22;39986;50.770;0.266;2024-03-07T08:56:49;9.70;99.90
54082;DHT22;39986;50.770;0.266;2024-03-07T08:59:17;9.90;99.90
54082;DHT22;39986;50.770;0.266;2024-03-07T09:01:43;9.60;99.90
54082;DHT22;39986;50.770;0.266;2024-03-07T09:04:09;9.80;99.90
54082;DHT22;39986;50.770;0.266;2024-03-07T09:06:35;9.80;99.90
54082;DHT22;39986;50.770;0.266;2024-03-07T09:09:03;9.90;99.90
54082;DHT22;39986;50.770;0.266;2024-03-07T09:11:34;10.10;99.90
54082;DHT22;39986;50.770;0.266;2024-03-07T09:14:02;10.30;99.90
54082;DHT22;39986;50.770;0.266;2024-03-07T09:16:29;10.40;99.90
54082;DHT22;39986;50.770;0.266;2024-03-07T09:18:55;10.30;99.90
54082;DHT22;39986;50.770;0.266;2024-03-07T09:21:21;10.30;99.90
54082;DHT22;39986;50.770;0.266;2024-03-07T09:23:46;10.40;99.90
54082;DHT22;39986;50.770;0.266;2024-03-07T09:36:03;10.50;99.90
54082;DHT22;39986;50.770;0.266;2024-03-07T09:38:30;10.50;99.90
54082;DHT22;39986;50.770;0.266;2024-03-07T09:40:59;10.60;99.90
54082;DHT22;39986;50.770;0.266;2024-03-07T09:45:54;10.40;99.90
54082;DHT22;39986;50.770;0.266;2024-03-07T09:48:21;10.60;99.90
54082;DHT22;39986;50.770;0.266;2024-03-07T09:50:55;10.80;99.90
54082;DHT22;39986;50.770;0.266;2024-03-07T09:55:55;11.30;99.90
54082;DHT22;39986;50.770;0.266;2024-03-07T10:00:49;11.60;99.90
54082;DHT22;39986;50.770;0.266;2024-03-07T10:03:16;12.00;99.90
54082;DHT22;39986;50.770;0.266;2024-03-07T10:05:46;12.20;99.90
54082;DHT22;39986;50.770;0.266;2024-03-07T10:10:40;12.60;99.90
54082;DHT22;39986;50.770;0.266;2024-03-07T10:13:05;12.60;99.90
54082;DHT22;39986;50.770;0.266;2024-03-07T10:15:34;12.60;99.90
54082;DHT22;39986;50.770;0.266;2024-03-07T10:20:31;13.10;99.90
54082;DHT22;39986;50.770;0.266;2024-03-07T10:22:57;12.90;99.90
54082;DHT22;39986;50.770;0.266;2024-03-07T10:30:22;12.20;99.90
54082;DHT22;39986;50.770;0.266;2024-03-07T10:32:51;12.20;99.90
54082;DHT22;39986;50.770;0.266;2024-03-07T10:35:21;12.10;99.90
54082;DHT22;39986;50.770;0.266;2024-03-07T10:37:48;12.10;99.90
54082;DHT22;39986;50.770;0.266;2024-03-07T10:47:43;11.90;99.90
54082;DHT22;39986;50.770;0.266;2024-03-07T10:50:36;11.70;99.90
54082;DHT22;39986;50.770;0.266;2024-03-07T11:03:01;11.50;99.90
54082;DHT22;39986;50.770;0.266;2024-03-07T11:05:28;11.40;99.90
54082;DHT22;39986;50.770;0.266;2024-03-07T11:08:00;11.30;99.90
54082;DHT22;39986;50.770;0.266;2024-03-07T11:10:36;11.50;99.90
54082;DHT22;39986;50.770;0.266;2024-03-07T11:15:28;11.20;99.90
54082;DHT22;39986;50.770;0.266;2024-03-07T11:17:55;11.10;99.90
54082;DHT22;39986;50.770;0.266;2024-03-07T11:20:21;11.20;99.90
54082;DHT22;39986;50.770;0.266;2024-03-07T11:57:19;15.10;99.90
54082;DHT22;39986;50.770;0.266;2024-03-07T11:59:47;11.00;99.90
54082;DHT22;39986;50.770;0.266;2024-03-07T12:07:15;10.70;99.90
54082;DHT22;39986;50.770;0.266;2024-03-07T12:12:20;10.90;99.90
54082;DHT22;39986;50.770;0.266;2024-03-07T12:14:53;10.90;99.90
54082;DHT22;39986;50.770;0.266;2024-03-07T12:17:22;11.20;99.90
54082;DHT22;39986;50.770;0.266;2024-03-07T12:19:49;11.40;99.90
54082;DHT22;39986;50.770;0.266;2024-03-07T12:27:16;11.90;99.90
54082;DHT22;39986;50.770;0.266;2024-03-07T12:29:42;12.30;99.90
54082;DHT22;39986;50.770;0.266;2024-03-07T12:34:39;12.10;99.90
54082;DHT22;39986;50.770;0.266;2024-03-07T12:37:08;12.20;99.90
54082;DHT22;39986;50.770;0.266;2024-03-07T12:39:42;12.40;99.90
54082;DHT22;39986;50.770;0.266;2024-03-07T12:42:24;12.80;99.90
54082;DHT22;39986;50.770;0.266;2024-03-07T12:44:50;13.80;99.90
54082;DHT22;39986;50.770;0.266;2024-03-07T12:47:19;15.40;99.90
54082;DHT22;39986;50.770;0.266;2024-03-07T12:49:49;16.70;99.90
54082;DHT22;39986;50.770;0.266;2024-03-07T12:52:17;17.30;99.90
54082;DHT22;39986;50.770;0.266;2024-03-07T12:54:45;19.30;99.90
54082;DHT22;39986;50.770;0.266;2024-03-07T13:02:12;17.60;99.90
54082;DHT22;39986;50.770;0.266;2024-03-07T13:04:38;18.40;99.90
54082;DHT22;39986;50.770;0.266;2024-03-07T13:07:04;18.80;99.90
54082;DHT22;39986;50.770;0.266;2024-03-07T13:09:30;19.40;99.90
54082;DHT22;39986;50.770;0.266;2024-03-07T13:11:59;20.30;99.90
54082;DHT22;39986;50.770;0.266;2024-03-07T13:14:35;19.70;99.90
54082;DHT22;39986;50.770;0.266;2024-03-07T13:17:07;21.60;99.90
54082;DHT22;39986;50.770;0.266;2024-03-07T13:19:41;22.60;99.90
54082;DHT22;39986;50.770;0.266;2024-03-07T13:22:11;22.40;99.90
54082;DHT22;39986;50.770;0.266;2024-03-07T13:24:37;22.40;99.90
54082;DHT22;39986;50.770;0.266;2024-03-07T13:27:08;21.90;99.90
54082;DHT22;39986;50.770;0.266;2024-03-07T13:29:39;22.00;99.90
54082;DHT22;39986;50.770;0.266;2024-03-07T13:32:12;22.00;99.90
54082;DHT22;39986;50.770;0.266;2024-03-07T13:34:41;21.80;99.90
54082;DHT22;39986;50.770;0.266;2024-03-07T13:37:12;21.60;99.90
54082;DHT22;39986;50.770;0.266;2024-03-07T13:39:43;21.80;99.90
54082;DHT22;39986;50.770;0.266;2024-03-07T13:42:19;21.80;99.90
54082;DHT22;39986;50.770;0.266;2024-03-07T13:44:47;21.80;99.90
54082;DHT22;39986;50.770;0.266;2024-03-07T13:47:13;21.10;99.90
54082;DHT22;39986;50.770;0.266;2024-03-07T13:49:44;21.70;99.90
54082;DHT22;39986;50.770;0.266;2024-03-07T13:52:09;21.40;99.90
54082;DHT22;39986;50.770;0.266;2024-03-07T13:54:46;20.30;99.90
54082;DHT22;39986;50.770;0.266;2024-03-07T14:07:44;20.70;99.90
54082;DHT22;39986;50.770;0.266;2024-03-07T14:18:53;23.40;99.90
54082;DHT22;39986;50.770;0.266;2024-03-07T14:32:02;21.30;99.90
54082;DHT22;39986;50.770;0.266;2024-03-07T14:39:52;21.60;99.90
54082;DHT22;39986;50.770;0.266;2024-03-07T14:42:19;22.50;99.90
54082;DHT22;39986;50.770;0.266;2024-03-07T14:44:45;21.30;99.90
54082;DHT22;39986;50.770;0.266;2024-03-07T14:47:18;20.90;99.90
54082;DHT22;39986;50.770;0.266;2024-03-07T14:49:50;20.90;99.90
54082;DHT22;39986;50.770;0.266;2024-03-07T14:52:16;21.10;99.90
54082;DHT22;39986;50.770;0.266;2024-03-07T14:54:48;21.80;99.90
54082;DHT22;39986;50.770;0.266;2024-03-07T14:57:13;22.20;99.90
54082;DHT22;39986;50.770;0.266;2024-03-07T14:59:41;22.20;99.90
54082;DHT22;39986;50.770;0.266;2024-03-07T15:02:08;21.80;99.90
54082;DHT22;39986;50.770;0.266;2024-03-07T15:04:37;21.90;99.90
54082;DHT22;39986;50.770;0.266;2024-03-07T15:14:34;20.70;99.90
54082;DHT22;39986;50.770;0.266;2024-03-07T15:17:03;20.90;99.90
54082;DHT22;39986;50.770;0.266;2024-03-07T15:22:03;19.90;99.90
54082;DHT22;39986;50.770;0.266;2024-03-07T15:24:28;20.30;99.90
54082;DHT22;39986;50.770;0.266;2024-03-07T15:26:59;20.60;99.90
54082;DHT22;39986;50.770;0.266;2024-03-07T15:29:25;20.30;99.90
54082;DHT22;39986;50.770;0.266;2024-03-07T15:31:50;21.00;99.90
54082;DHT22;39986;50.770;0.266;2024-03-07T15:34:16;20.90;99.90
54082;DHT22;39986;50.770;0.266;2024-03-07T15:36:56;20.80;99.90
54082;DHT22;39986;50.770;0.266;2024-03-07T15:39:24;20.00;99.90
54082;DHT22;39986;50.770;0.266;2024-03-07T15:41:55;19.60;99.90
54082;DHT22;39986;50.770;0.266;2024-03-07T15:44:21;19.80;99.90
54082;DHT22;39986;50.770;0.266;2024-03-07T15:46:47;19.30;99.90
54082;DHT22;39986;50.770;0.266;2024-03-07T15:49:14;19.00;99.90
54082;DHT22;39986;50.770;0.266;2024-03-07T15:51:39;18.60;99.90
54082;DHT22;39986;50.770;0.266;2024-03-07T15:54:07;17.90;99.90
54082;DHT22;39986;50.770;0.266;2024-03-07T16:01:25;16.30;99.90
54082;DHT22;39986;50.770;0.266;2024-03-07T16:13:39;12.50;99.90
54082;DHT22;39986;50.770;0.266;2024-03-07T16:18:30;12.20;99.90
54082;DHT22;39986;50.770;0.266;2024-03-07T16:20:58;15.70;99.90
54082;DHT22;39986;50.770;0.266;2024-03-07T16:23:24;12.20;99.90
54082;DHT22;39986;50.770;0.266;2024-03-07T16:30:53;11.50;99.90
54082;DHT22;39986;50.770;0.266;2024-03-07T16:35:49;11.20;99.90
54082;DHT22;39986;50.770;0.266;2024-03-07T16:38:18;11.30;99.90
54082;DHT22;39986;50.770;0.266;2024-03-07T16:40:48;11.30;99.90
54082;DHT22;39986;50.770;0.266;2024-03-07T16:43:18;11.30;99.90
54082;DHT22;39986;50.770;0.266;2024-03-07T16:45:43;11.30;99.90
54082;DHT22;39986;50.770;0.266;2024-03-07T16:48:13;11.30;99.90
54082;DHT22;39986;50.770;0.266;2024-03-07T16:50:41;11.10;99.90
54082;DHT22;39986;50.770;0.266;2024-03-07T16:53:07;11.10;99.90
54082;DHT22;39986;50.770;0.266;2024-03-07T16:55:33;10.80;99.90
54082;DHT22;39986;50.770;0.266;2024-03-07T16:58:00;10.80;99.90
54082;DHT22;39986;50.770;0.266;2024-03-07T17:02:53;10.50;99.90
54082;DHT22;39986;50.770;0.266;2024-03-07T17:05:21;10.60;99.90
54082;DHT22;39986;50.770;0.266;2024-03-07T17:07:52;10.60;99.90
54082;DHT22;39986;50.770;0.266;2024-03-07T17:10:17;10.50;99.90
54082;DHT22;39986;50.770;0.266;2024-03-07T17:12:47;10.50;99.90
54082;DHT22;39986;50.770;0.266;2024-03-07T17:15:13;10.40;99.90
54082;DHT22;39986;50.770;0.266;2024-03-07T17:17:41;10.20;99.90
54082;DHT22;39986;50.770;0.266;2024-03-07T17:20:08;10.20;99.90
54082;DHT22;39986;50.770;0.266;2024-03-07T17:22:36;8.40;99.90
54082;DHT22;39986;50.770;0.266;2024-03-07T17:25:02;10.10;99.90
54082;DHT22;39986;50.770;0.266;2024-03-07T17:27:30;10.30;99.90
54082;DHT22;39986;50.770;0.266;2024-03-07T17:29:58;10.20;99.90
54082;DHT22;39986;50.770;0.266;2024-03-07T17:32:26;10.10;99.90
54082;DHT22;39986;50.770;0.266;2024-03-07T17:34:56;10.20;99.90
54082;DHT22;39986;50.770;0.266;2024-03-07T17:37:22;10.10;99.90
54082;DHT22;39986;50.770;0.266;2024-03-07T17:42:19;10.00;99.90
54082;DHT22;39986;50.770;0.266;2024-03-07T17:44:45;10.10;99.90
54082;DHT22;39986;50.770;0.266;2024-03-07T17:47:11;9.90;99.90
54082;DHT22;39986;50.770;0.266;2024-03-07T17:49:37;9.70;99.90
54082;DHT22;39986;50.770;0.266;2024-03-07T17:52:06;9.60;99.90
54082;DHT22;39986;50.770;0.266;2024-03-07T17:54:41;9.50;99.90
54082;DHT22;39986;50.770;0.266;2024-03-07T17:57:16;9.40;99.90
54082;DHT22;39986;50.770;0.266;2024-03-07T18:02:14;9.30;99.90
54082;DHT22;39986;50.770;0.266;2024-03-07T18:04:42;9.30;99.90
54082;DHT22;39986;50.770;0.266;2024-03-07T18:07:15;9.30;99.90
54082;DHT22;39986;50.770;0.266;2024-03-07T18:09:44;9.40;99.90
54082;DHT22;39986;50.770;0.266;2024-03-07T18:12:10;9.20;99.90
54082;DHT22;39986;50.770;0.266;2024-03-07T18:14:42;9.10;99.90
54082;DHT22;39986;50.770;0.266;2024-03-07T18:17:14;9.00;99.90
54082;DHT22;39986;50.770;0.266;2024-03-07T18:19:40;9.20;99.90
54082;DHT22;39986;50.770;0.266;2024-03-07T18:22:06;9.20;99.90
54082;DHT22;39986;50.770;0.266;2024-03-07T18:24:33;9.00;99.90
54082;DHT22;39986;50.770;0.266;2024-03-07T18:26:58;9.10;99.90
54082;DHT22;39986;50.770;0.266;2024-03-07T18:29:33;8.90;99.90
54082;DHT22;39986;50.770;0.266;2024-03-07T18:32:01;8.90;99.90
54082;DHT22;39986;50.770;0.266;2024-03-07T18:34:27;8.80;99.90
54082;DHT22;39986;50.770;0.266;2024-03-07T18:36:52;9.00;99.90
54082;DHT22;39986;50.770;0.266;2024-03-07T18:39:18;8.90;99.90
54082;DHT22;39986;50.770;0.266;2024-03-07T18:41:50;8.80;99.90
54082;DHT22;39986;50.770;0.266;2024-03-07T18:44:16;8.90;99.90
54082;DHT22;39986;50.770;0.266;2024-03-07T18:46:41;8.80;99.90
54082;DHT22;39986;50.770;0.266;2024-03-07T18:49:07;8.90;99.90
54082;DHT22;39986;50.770;0.266;2024-03-07T18:51:40;8.90;99.90
54082;DHT22;39986;50.770;0.266;2024-03-07T18:54:06;8.80;99.90
54082;DHT22;39986;50.770;0.266;2024-03-07T18:58:58;8.70;99.90
54082;DHT22;39986;50.770;0.266;2024-03-07T19:01:29;8.70;99.90
54082;DHT22;39986;50.770;0.266;2024-03-07T19:06:22;8.60;99.90
54082;DHT22;39986;50.770;0.266;2024-03-07T19:08:48;8.70;99.90
54082;DHT22;39986;50.770;0.266;2024-03-07T19:11:16;8.60;99.90
54082;DHT22;39986;50.770;0.266;2024-03-07T19:13:43;8.50;99.90
54082;DHT22;39986;50.770;0.266;2024-03-07T19:16:09;8.60;99.90
54082;DHT22;39986;50.770;0.266;2024-03-07T19:18:35;8.50;99.90
54082;DHT22;39986;50.770;0.266;2024-03-07T19:21:00;8.30;99.90
54082;DHT22;39986;50.770;0.266;2024-03-07T19:23:34;8.40;99.90
54082;DHT22;39986;50.770;0.266;2024-03-07T19:26:02;8.40;99.90
54082;DHT22;39986;50.770;0.266;2024-03-07T19:28:34;8.40;99.90
54082;DHT22;39986;50.770;0.266;2024-03-07T19:31:03;8.40;99.90
54082;DHT22;39986;50.770;0.266;2024-03-07T19:33:28;8.30;99.90
54082;DHT22;39986;50.770;0.266;2024-03-07T19:35:56;8.50;99.90
54082;DHT22;39986;50.770;0.266;2024-03-07T19:38:24;8.20;99.90
54082;DHT22;39986;50.770;0.266;2024-03-07T19:40:50;8.20;99.90
54082;DHT22;39986;50.770;0.266;2024-03-07T19:43:16;8.20;99.90
54082;DHT22;39986;50.770;0.266;2024-03-07T19:45:44;8.20;99.90
54082;DHT22;39986;50.770;0.266;2024-03-07T19:48:10;8.10;99.90
54082;DHT22;39986;50.770;0.266;2024-03-07T19:50:36;8.20;99.90
54082;DHT22;39986;50.770;0.266;2024-03-07T19:53:02;8.10;99.90
54082;DHT22;39986;50.770;0.266;2024-03-07T19:55:28;8.00;99.90
54082;DHT22;39986;50.770;0.266;2024-03-07T19:57:57;8.00;99.90
54082;DHT22;39986;50.770;0.266;2024-03-07T20:00:23;8.00;99.90
54082;DHT22;39986;50.770;0.266;2024-03-07T20:02:54;7.90;99.90
54082;DHT22;39986;50.770;0.266;2024-03-07T20:05:21;7.80;99.90
54082;DHT22;39986;50.770;0.266;2024-03-07T20:12:42;7.90;99.90
54082;DHT22;39986;50.770;0.266;2024-03-07T20:15:09;7.90;99.90
54082;DHT22;39986;50.770;0.266;2024-03-07T20:17:36;7.90;99.90
54082;DHT22;39986;50.770;0.266;2024-03-07T20:20:03;7.80;99.90
54082;DHT22;39986;50.770;0.266;2024-03-07T20:22:46;7.80;99.90
54082;DHT22;39986;50.770;0.266;2024-03-07T20:25:17;7.90;99.90
54082;DHT22;39986;50.770;0.266;2024-03-07T20:27:44;7.80;99.90
54082;DHT22;39986;50.770;0.266;2024-03-07T20:30:10;7.70;99.90
54082;DHT22;39986;50.770;0.266;2024-03-07T20:32:36;7.80;99.90
54082;DHT22;39986;50.770;0.266;2024-03-07T20:35:03;7.70;99.90
54082;DHT22;39986;50.770;0.266;2024-03-07T20:37:36;7.80;99.90
54082;DHT22;39986;50.770;0.266;2024-03-07T20:40:02;7.80;99.90
54082;DHT22;39986;50.770;0.266;2024-03-07T20:42:33;7.70;99.90
54082;DHT22;39986;50.770;0.266;2024-03-07T20:45:00;7.80;99.90